createdAt,value
2022-11-08T00:00:41.715Z,2.73
2022-11-08T00:03:12.247Z,3.00
2022-11-08T00:05:59.351Z,2.87
2022-11-08T00:08:45.254Z,3.40
2022-11-08T00:11:31.298Z,2.90
2022-11-08T00:13:59.820Z,3.90
2022-11-08T00:16:28.327Z,3.87
2022-11-08T00:18:56.689Z,3.50
2022-11-08T00:21:26.449Z,3.23
2022-11-08T00:23:55.015Z,3.10
2022-11-08T00:26:23.324Z,2.60
2022-11-08T00:28:51.605Z,2.63
2022-11-08T00:31:19.920Z,2.57
2022-11-08T00:33:48.097Z,2.80
2022-11-08T00:36:16.662Z,14.50
2022-11-08T00:38:46.270Z,24.90
2022-11-08T00:41:14.642Z,13.57
2022-11-08T00:43:42.859Z,7.50
2022-11-08T00:46:11.396Z,7.23
2022-11-08T00:48:39.703Z,3.30
2022-11-08T00:51:10.805Z,3.30
2022-11-08T00:53:39.745Z,2.90
2022-11-08T00:56:13.092Z,2.90
2022-11-08T00:58:43.817Z,2.03
2022-11-08T01:01:13.942Z,2.60
2022-11-08T01:03:42.532Z,2.10
2022-11-08T01:06:14.972Z,1.63
2022-11-08T01:08:44.120Z,1.70
2022-11-08T01:11:18.457Z,1.70
2022-11-08T01:13:50.232Z,1.90
2022-11-08T01:16:22.889Z,1.70
2022-11-08T01:18:53.555Z,1.53
2022-11-08T01:21:22.804Z,1.43
2022-11-08T01:23:51.104Z,1.53
2022-11-08T01:26:23.740Z,1.83
2022-11-08T01:28:52.250Z,1.50
2022-11-08T01:31:23.179Z,1.70
2022-11-08T01:33:52.473Z,1.50
2022-11-08T01:36:22.956Z,1.40
2022-11-08T01:38:52.282Z,1.37
2022-11-08T01:41:25.053Z,1.17
2022-11-08T01:43:54.332Z,1.40
2022-11-08T01:46:34.439Z,1.27
2022-11-08T01:49:19.043Z,1.33
2022-11-08T01:51:53.395Z,1.47
2022-11-08T01:54:26.887Z,1.30
2022-11-08T01:56:57.862Z,1.50
2022-11-08T01:59:26.291Z,1.30
2022-11-08T02:01:56.563Z,1.20
2022-11-08T02:04:25.185Z,1.60
2022-11-08T02:06:54.182Z,1.43
2022-11-08T02:09:22.601Z,1.40
2022-11-08T02:11:51.714Z,1.40
2022-11-08T02:14:22.248Z,2.00
2022-11-08T02:16:50.514Z,1.70
2022-11-08T02:19:28.644Z,1.30
2022-11-08T02:22:06.550Z,1.57
2022-11-08T02:24:37.708Z,1.60
2022-11-08T02:27:06.532Z,1.73
2022-11-08T02:29:36.788Z,1.70
2022-11-08T02:32:06.423Z,1.80
2022-11-08T02:34:38.964Z,1.60
2022-11-08T02:37:07.957Z,1.67
2022-11-08T02:39:37.563Z,1.30
2022-11-08T02:42:06.135Z,1.30
2022-11-08T02:44:34.370Z,1.30
2022-11-08T02:47:02.615Z,1.47
2022-11-08T02:49:30.876Z,1.57
2022-11-08T02:51:59.126Z,1.40
2022-11-08T02:54:27.334Z,1.20
2022-11-08T02:56:57.092Z,1.53
2022-11-08T02:59:25.280Z,1.40
2022-11-08T03:01:54.299Z,1.20
2022-11-08T03:04:25.179Z,1.40
2022-11-08T03:07:02.655Z,1.30
2022-11-08T03:09:30.865Z,1.53
2022-11-08T03:12:00.478Z,1.70
2022-11-08T03:14:28.724Z,1.80
2022-11-08T03:16:57.024Z,1.70
2022-11-08T03:19:25.298Z,1.97
2022-11-08T03:21:53.638Z,2.30
2022-11-08T03:24:21.832Z,2.23
2022-11-08T03:26:50.079Z,2.27
2022-11-08T03:29:19.702Z,1.87
2022-11-08T03:31:47.986Z,2.20
2022-11-08T03:34:16.502Z,2.20
2022-11-08T03:36:44.784Z,1.93
2022-11-08T03:39:13.128Z,1.90
2022-11-08T03:41:41.428Z,2.13
2022-11-08T03:44:09.925Z,2.40
2022-11-08T03:46:39.580Z,2.70
2022-11-08T03:49:08.057Z,2.50
2022-11-08T03:51:36.270Z,2.37
2022-11-08T03:54:05.225Z,2.10
2022-11-08T03:56:33.484Z,1.87
2022-11-08T03:59:01.686Z,2.40
2022-11-08T04:01:30.031Z,2.17
2022-11-08T04:03:59.748Z,2.40
2022-11-08T04:06:28.517Z,2.30
2022-11-08T04:08:56.776Z,2.10
2022-11-08T04:11:42.507Z,2.10
2022-11-08T04:14:28.603Z,1.90
2022-11-08T04:16:57.278Z,2.23
2022-11-08T04:19:44.335Z,2.30
2022-11-08T04:22:12.853Z,2.30
2022-11-08T04:24:41.056Z,2.00
2022-11-08T04:27:09.361Z,2.20
2022-11-08T04:29:37.607Z,2.60
2022-11-08T04:32:06.380Z,2.30
2022-11-08T04:34:36.040Z,4.00
2022-11-08T04:37:04.225Z,2.30
2022-11-08T04:39:32.412Z,2.40
2022-11-08T04:42:02.475Z,3.80
2022-11-08T04:44:30.923Z,3.73
2022-11-08T04:46:59.141Z,4.20
2022-11-08T04:49:27.348Z,3.50
2022-11-08T04:51:56.992Z,3.17
2022-11-08T04:54:25.197Z,3.03
2022-11-08T04:56:53.420Z,3.20
2022-11-08T04:59:21.752Z,2.93
2022-11-08T05:01:50.224Z,2.50
2022-11-08T05:04:18.688Z,2.23
2022-11-08T05:06:59.934Z,2.43
2022-11-08T05:09:28.158Z,2.00
2022-11-08T05:11:56.366Z,2.33
2022-11-08T05:14:24.557Z,2.33
2022-11-08T05:16:53.136Z,2.43
2022-11-08T05:19:35.310Z,2.70
2022-11-08T05:22:22.404Z,2.20
2022-11-08T05:24:50.654Z,2.10
2022-11-08T05:27:18.956Z,2.20
2022-11-08T05:29:47.173Z,2.57
2022-11-08T05:32:15.566Z,2.00
2022-11-08T05:34:43.974Z,2.43
2022-11-08T05:37:13.639Z,2.47
2022-11-08T05:39:41.859Z,3.27
2022-11-08T05:42:10.384Z,2.90
2022-11-08T05:44:38.612Z,2.50
2022-11-08T05:47:06.898Z,2.90
2022-11-08T05:49:35.563Z,3.40
2022-11-08T05:52:04.282Z,3.97
2022-11-08T05:54:33.862Z,3.73
2022-11-08T05:57:02.125Z,3.80
2022-11-08T05:59:30.369Z,3.60
2022-11-08T06:01:58.643Z,3.63
2022-11-08T06:04:26.909Z,3.90
2022-11-08T06:06:55.151Z,3.73
2022-11-08T06:09:23.601Z,4.13
2022-11-08T06:11:53.170Z,4.00
2022-11-08T06:14:21.577Z,4.87
2022-11-08T06:16:50.302Z,4.80
2022-11-08T06:19:18.511Z,11.53
2022-11-08T06:21:46.688Z,64.87
2022-11-08T06:24:17.364Z,62.27
2022-11-08T06:26:45.969Z,65.77
2022-11-08T06:29:15.820Z,47.27
2022-11-08T06:31:44.080Z,72.57
2022-11-08T06:34:12.772Z,56.80
2022-11-08T06:36:41.083Z,33.67
2022-11-08T06:39:09.349Z,20.57
2022-11-08T06:41:37.618Z,26.57
2022-11-08T06:44:06.061Z,35.50
2022-11-08T06:46:35.702Z,17.13
2022-11-08T06:49:03.930Z,12.90
2022-11-08T06:51:32.167Z,10.07
2022-11-08T06:54:00.586Z,8.83
2022-11-08T06:56:28.840Z,10.87
2022-11-08T06:58:57.018Z,7.70
2022-11-08T07:01:25.342Z,7.27
2022-11-08T07:03:54.945Z,7.77
2022-11-08T07:06:23.522Z,15.80
2022-11-08T07:08:51.697Z,11.17
2022-11-08T07:11:19.886Z,9.47
2022-11-08T07:13:48.566Z,6.10
2022-11-08T07:16:17.102Z,5.17
2022-11-08T07:18:45.408Z,5.83
2022-11-08T07:21:14.979Z,5.80
2022-11-08T07:23:43.184Z,5.50
2022-11-08T07:26:13.147Z,6.70
2022-11-08T07:28:41.469Z,6.13
2022-11-08T07:31:11.687Z,5.50
2022-11-08T07:33:39.946Z,6.30
2022-11-08T07:36:08.966Z,5.43
2022-11-08T07:38:42.652Z,5.30
2022-11-08T07:41:11.363Z,5.07
2022-11-08T07:43:39.579Z,5.33
2022-11-08T07:46:14.394Z,4.80
2022-11-08T07:48:42.706Z,5.27
2022-11-08T07:51:11.001Z,5.13
2022-11-08T07:53:40.599Z,7.40
2022-11-08T07:56:09.103Z,11.87
2022-11-08T07:58:37.569Z,9.13
2022-11-08T08:01:07.094Z,17.47
2022-11-08T08:03:35.822Z,22.50
2022-11-08T08:06:04.234Z,14.37
2022-11-08T08:08:32.471Z,8.73
2022-11-08T08:11:03.232Z,6.77
2022-11-08T08:13:31.939Z,6.93
2022-11-08T08:16:01.499Z,4.80
2022-11-08T08:18:30.331Z,4.03
2022-11-08T08:20:59.320Z,4.57
2022-11-08T08:23:27.803Z,6.80
2022-11-08T08:25:56.255Z,6.23
2022-11-08T08:28:25.846Z,3.67
2022-11-08T08:30:54.172Z,3.37
2022-11-08T08:33:34.406Z,3.50
2022-11-08T08:36:05.706Z,3.50
2022-11-08T08:38:38.711Z,3.63
2022-11-08T08:41:09.875Z,3.07
2022-11-08T08:43:39.449Z,3.30
2022-11-08T08:46:08.261Z,2.97
2022-11-08T08:48:38.477Z,2.97
2022-11-08T08:51:06.992Z,2.97
2022-11-08T08:53:35.415Z,4.70
2022-11-08T08:56:06.171Z,3.10
2022-11-08T08:58:34.679Z,5.20
2022-11-08T09:04:02.011Z,3.23
2022-11-08T09:06:31.190Z,2.50
2022-11-08T09:08:59.530Z,3.00
2022-11-08T09:11:27.779Z,2.47
2022-11-08T09:13:55.976Z,2.40
2022-11-08T09:16:25.595Z,2.10
2022-11-08T09:18:53.852Z,2.40
2022-11-08T09:21:22.230Z,3.30
2022-11-08T09:23:50.409Z,2.70
2022-11-08T09:26:18.633Z,3.10
2022-11-08T09:28:47.070Z,5.60
2022-11-08T09:31:15.365Z,3.37
2022-11-08T09:33:44.898Z,3.53
2022-11-08T09:36:14.774Z,2.90
2022-11-08T09:38:43.090Z,2.97
2022-11-08T09:41:36.933Z,2.63
2022-11-08T09:44:23.309Z,2.60
2022-11-08T09:46:55.175Z,2.80
2022-11-08T09:49:39.384Z,2.70
2022-11-08T09:52:08.464Z,2.30
2022-11-08T09:54:42.481Z,2.40
2022-11-08T09:57:21.253Z,3.10
2022-11-08T09:59:53.633Z,3.27
2022-11-08T10:02:24.847Z,2.60
2022-11-08T10:04:58.770Z,2.80
2022-11-08T10:07:34.385Z,2.90
2022-11-08T10:10:39.318Z,2.73
2022-11-08T10:13:18.356Z,2.03
2022-11-08T10:15:57.097Z,2.00
2022-11-08T10:18:55.683Z,1.97
2022-11-08T10:21:48.427Z,2.00
2022-11-08T10:24:24.387Z,2.00
2022-11-08T10:26:54.291Z,1.93
2022-11-08T10:29:25.840Z,1.70
2022-11-08T10:32:00.661Z,1.70
2022-11-08T10:34:36.446Z,1.70
2022-11-08T10:37:09.703Z,2.00
2022-11-08T10:39:45.124Z,1.50
2022-11-08T10:42:36.059Z,1.80
2022-11-08T10:45:04.659Z,1.70
2022-11-08T10:47:35.352Z,1.60
2022-11-08T10:50:14.269Z,1.60
2022-11-08T10:52:49.203Z,1.60
2022-11-08T10:55:30.950Z,1.52
2022-11-08T10:57:59.453Z,1.77
2022-11-08T11:00:31.005Z,1.88
2022-11-08T11:03:01.854Z,1.70
2022-11-08T11:05:34.742Z,1.67
2022-11-08T11:08:15.882Z,1.38
2022-11-08T11:10:46.304Z,1.40
2022-11-08T11:13:20.935Z,1.40
2022-11-08T11:15:52.076Z,1.65
2022-11-08T11:18:28.992Z,1.40
2022-11-08T11:21:05.748Z,1.92
2022-11-08T11:23:38.963Z,1.67
2022-11-08T11:26:09.200Z,1.30
2022-11-08T11:28:37.459Z,1.55
2022-11-08T11:31:23.767Z,1.48
2022-11-08T11:33:52.015Z,1.42
2022-11-08T11:36:25.651Z,3.83
2022-11-08T11:39:01.825Z,2.10
2022-11-08T11:41:37.199Z,1.40
2022-11-08T11:44:15.083Z,6.63
2022-11-08T11:46:54.471Z,14.10
2022-11-08T11:49:23.631Z,17.67
2022-11-08T11:51:55.039Z,3.22
2022-11-08T11:54:30.203Z,1.60
2022-11-08T11:57:03.835Z,1.38
2022-11-08T11:59:57.710Z,1.73
2022-11-08T12:03:15.733Z,1.42
2022-11-08T12:06:14.605Z,1.40
2022-11-08T12:08:57.958Z,1.38
2022-11-08T12:11:43.559Z,1.20
2022-11-08T12:14:31.641Z,1.30
2022-11-08T12:17:23.643Z,1.52
2022-11-08T12:20:21.604Z,1.80
2022-11-08T12:23:12.174Z,1.60
2022-11-08T12:25:52.334Z,2.00
2022-11-08T12:28:44.112Z,1.50
2022-11-08T12:31:22.696Z,1.30
2022-11-08T12:34:16.063Z,1.52
2022-11-08T12:36:54.979Z,1.45
2022-11-08T12:39:35.706Z,1.70
2022-11-08T12:42:40.150Z,1.70
2022-11-08T12:45:32.624Z,1.45
2022-11-08T12:48:13.974Z,1.30
2022-11-08T12:50:55.256Z,1.40
2022-11-08T12:53:57.703Z,1.38
2022-11-08T12:56:34.799Z,1.67
2022-11-08T12:59:05.096Z,1.40
2022-11-08T13:01:34.843Z,1.38
2022-11-08T13:04:33.957Z,1.80
2022-11-08T13:07:13.324Z,1.40
2022-11-08T13:09:48.625Z,1.50
2022-11-08T13:12:45.303Z,1.38
2022-11-08T13:15:21.304Z,2.22
2022-11-08T13:18:30.994Z,1.38
2022-11-08T13:20:59.275Z,1.50
2022-11-08T13:23:31.005Z,1.17
2022-11-08T13:26:21.571Z,1.27
2022-11-08T13:28:51.165Z,1.33
2022-11-08T13:31:47.312Z,1.30
2022-11-08T13:34:41.402Z,1.40
2022-11-08T13:37:38.446Z,1.45
2022-11-08T13:40:33.425Z,1.55
2022-11-08T13:43:23.986Z,1.40
2022-11-08T13:45:53.139Z,2.17
2022-11-08T13:48:42.895Z,1.50
2022-11-08T13:51:27.873Z,1.63
2022-11-08T13:53:59.283Z,1.58
2022-11-08T13:56:51.569Z,1.38
2022-11-08T13:59:58.915Z,1.77
2022-11-08T14:02:47.860Z,1.40
2022-11-08T14:05:28.272Z,13.88
2022-11-08T14:08:29.597Z,8.35
2022-11-08T14:11:40.430Z,3.78
2022-11-08T14:14:35.555Z,3.25
2022-11-08T14:17:31.157Z,6.18
2022-11-08T14:20:20.649Z,12.73
2022-11-08T14:22:50.356Z,4.80
2022-11-08T14:25:30.451Z,5.47
2022-11-08T14:27:59.229Z,3.17
2022-11-08T14:30:27.870Z,2.22
2022-11-08T14:33:18.749Z,2.40
2022-11-08T14:35:58.732Z,2.13
2022-11-08T14:38:27.600Z,2.50
2022-11-08T14:41:01.254Z,5.40
2022-11-08T14:43:30.440Z,6.30
2022-11-08T14:45:58.904Z,18.95
2022-11-08T14:48:31.231Z,10.30
2022-11-08T14:51:00.492Z,5.50
2022-11-08T14:53:31.497Z,5.03
2022-11-08T14:56:17.774Z,4.75
2022-11-08T14:58:47.623Z,4.00
2022-11-08T15:01:18.506Z,3.58
2022-11-08T15:03:59.898Z,2.30
2022-11-08T15:06:34.105Z,2.28
2022-11-08T15:09:41.648Z,2.55
2022-11-08T15:12:18.319Z,3.38
2022-11-08T15:14:53.753Z,9.82
2022-11-08T15:17:34.838Z,10.27
2022-11-08T15:20:22.635Z,13.23
2022-11-08T15:22:55.464Z,16.25
2022-11-08T15:25:31.050Z,8.15
2022-11-08T15:28:17.014Z,7.70
2022-11-08T15:30:46.825Z,6.18
2022-11-08T15:33:23.587Z,10.27
2022-11-08T15:35:52.476Z,7.40
2022-11-08T15:38:32.154Z,14.27
2022-11-08T15:41:03.552Z,11.60
2022-11-08T15:43:42.174Z,6.35
2022-11-08T15:46:29.357Z,10.10
2022-11-08T15:48:59.859Z,5.20
2022-11-08T15:51:28.093Z,12.10
2022-11-08T15:53:56.391Z,12.17
2022-11-08T15:56:24.658Z,8.80
2022-11-08T15:58:54.262Z,4.30
2022-11-08T16:01:22.983Z,5.80
2022-11-08T16:03:52.541Z,5.90
2022-11-08T16:06:20.742Z,9.13
2022-11-08T16:08:48.958Z,13.10
2022-11-08T16:11:22.198Z,6.07
2022-11-08T16:13:52.009Z,9.77
2022-11-08T16:16:21.668Z,18.03
2022-11-08T16:18:49.864Z,11.20
2022-11-08T16:21:18.149Z,6.40
2022-11-08T16:23:46.994Z,8.90
2022-11-08T16:26:18.054Z,9.27
2022-11-08T16:28:46.316Z,5.70
2022-11-08T16:31:17.779Z,3.00
2022-11-08T16:33:48.062Z,2.90
2022-11-08T16:36:20.811Z,2.97
2022-11-08T16:38:52.399Z,2.83
2022-11-08T16:41:21.589Z,2.97
2022-11-08T16:43:49.803Z,2.73
2022-11-08T16:46:20.214Z,2.97
2022-11-08T16:48:54.096Z,6.27
2022-11-08T16:51:25.254Z,5.17
2022-11-08T16:53:54.412Z,8.00
2022-11-08T16:56:22.716Z,8.43
2022-11-08T16:58:51.131Z,8.17
2022-11-08T17:01:29.917Z,8.73
2022-11-08T17:03:59.528Z,6.67
2022-11-08T17:06:28.261Z,9.73
2022-11-08T17:08:56.550Z,9.23
2022-11-08T17:11:25.204Z,22.53
2022-11-08T17:13:54.763Z,10.20
2022-11-08T17:16:23.089Z,7.80
2022-11-08T17:18:53.362Z,4.60
2022-11-08T17:21:43.540Z,4.80
2022-11-08T17:24:13.686Z,4.43
2022-11-08T17:26:45.461Z,4.13
2022-11-08T17:29:13.639Z,4.93
2022-11-08T17:31:48.137Z,5.40
2022-11-08T17:34:16.593Z,6.77
2022-11-08T17:36:46.267Z,12.80
2022-11-08T17:39:15.020Z,16.13
2022-11-08T17:41:43.245Z,8.63
2022-11-08T17:44:11.447Z,6.87
2022-11-08T17:46:39.677Z,6.90
2022-11-08T17:49:08.036Z,6.27
2022-11-08T17:51:36.652Z,5.63
2022-11-08T17:54:06.542Z,6.13
2022-11-08T17:56:34.844Z,6.20
2022-11-08T17:59:04.012Z,8.60
2022-11-08T18:01:33.714Z,8.47
2022-11-08T18:04:03.449Z,8.20
2022-11-08T18:06:31.940Z,7.60
2022-11-08T18:09:00.264Z,7.50
2022-11-08T18:11:29.862Z,7.70
2022-11-08T18:13:58.139Z,6.63
2022-11-08T18:16:26.531Z,5.87
2022-11-08T18:18:55.885Z,4.70
2022-11-08T18:21:24.562Z,5.27
2022-11-08T18:23:53.209Z,5.23
2022-11-08T18:26:21.485Z,5.50
2022-11-08T18:28:51.046Z,5.23
2022-11-08T18:31:22.726Z,5.10
2022-11-08T18:33:51.434Z,5.33
2022-11-08T18:36:22.062Z,6.03
2022-11-08T18:38:52.039Z,8.00
2022-11-08T18:41:22.585Z,7.90
2022-11-08T18:43:52.674Z,6.67
2022-11-08T18:46:26.483Z,5.30
2022-11-08T18:48:55.225Z,5.03
2022-11-08T18:51:24.370Z,5.23
2022-11-08T18:53:52.946Z,5.33
2022-11-08T18:56:22.124Z,5.30
2022-11-08T18:58:52.761Z,4.60
2022-11-08T19:01:22.887Z,5.70
2022-11-08T19:04:01.163Z,6.50
2022-11-08T19:06:30.591Z,6.87
2022-11-08T19:08:58.850Z,7.10
2022-11-08T19:11:30.422Z,5.87
2022-11-08T19:14:01.966Z,6.80
2022-11-08T19:16:30.558Z,6.63
2022-11-08T19:18:58.842Z,7.27
2022-11-08T19:21:29.298Z,6.33
2022-11-08T19:24:00.345Z,6.60
2022-11-08T19:26:30.070Z,4.60
2022-11-08T19:29:01.181Z,6.77
2022-11-08T19:31:29.486Z,4.83
2022-11-08T19:33:58.208Z,4.50
2022-11-08T19:36:29.811Z,4.60
2022-11-08T19:38:59.104Z,4.50
2022-11-08T19:41:29.551Z,5.20
2022-11-08T19:43:59.165Z,5.60
2022-11-08T19:46:30.056Z,5.10
2022-11-08T19:49:00.096Z,4.60
2022-11-08T19:51:58.044Z,5.00
2022-11-08T19:54:26.297Z,8.47
2022-11-08T19:57:09.785Z,8.60
2022-11-08T19:59:39.514Z,6.80
2022-11-08T20:02:08.066Z,5.47
2022-11-08T20:04:36.488Z,8.67
2022-11-08T20:07:04.775Z,9.77
2022-11-08T20:09:35.567Z,5.43
2022-11-08T20:12:05.684Z,5.20
2022-11-08T20:14:34.039Z,5.10
2022-11-08T20:17:03.674Z,4.50
2022-11-08T20:19:31.956Z,4.37
2022-11-08T20:22:00.207Z,4.60
2022-11-08T20:24:28.826Z,4.70
2022-11-08T20:27:01.676Z,3.77
2022-11-08T20:29:33.338Z,4.57
2022-11-08T20:32:03.785Z,4.60
2022-11-08T20:34:32.362Z,5.07
2022-11-08T20:37:00.739Z,4.57
2022-11-08T20:39:30.784Z,5.57
2022-11-08T20:41:59.097Z,5.30
2022-11-08T20:44:27.349Z,7.37
2022-11-08T20:46:55.545Z,5.37
2022-11-08T20:49:25.211Z,4.43
2022-11-08T20:51:53.538Z,4.63
2022-11-08T20:54:21.794Z,4.20
2022-11-08T20:56:50.015Z,4.30
2022-11-08T20:59:18.397Z,4.30
2022-11-08T21:01:46.734Z,3.97
2022-11-08T21:04:15.353Z,5.20
2022-11-08T21:06:45.031Z,6.77
2022-11-08T21:09:36.532Z,4.90
2022-11-08T21:12:02.335Z,4.70
2022-11-08T21:14:30.541Z,6.33
2022-11-08T21:19:48.266Z,8.23
2022-11-08T21:22:18.310Z,4.67
2022-11-08T21:24:48.779Z,4.87
2022-11-08T21:27:17.530Z,4.83
2022-11-08T21:29:45.783Z,4.90
2022-11-08T21:32:14.185Z,5.67
2022-11-08T21:34:45.643Z,7.20
2022-11-08T21:37:14.965Z,7.07
2022-11-08T21:39:44.530Z,5.50
2022-11-08T21:42:14.007Z,4.53
2022-11-08T21:44:42.378Z,4.27
2022-11-08T21:47:11.216Z,3.97
2022-11-08T21:49:39.561Z,3.73
2022-11-08T21:52:08.282Z,3.60
2022-11-08T21:54:36.485Z,3.60
2022-11-08T21:57:31.082Z,3.63
2022-11-08T21:59:59.266Z,4.33
2022-11-08T22:02:27.449Z,4.37
2022-11-08T22:04:55.649Z,3.90
2022-11-08T22:07:23.983Z,3.90
2022-11-08T22:09:52.517Z,3.83
2022-11-08T22:12:20.752Z,4.13
2022-11-08T22:14:52.517Z,4.00
2022-11-08T22:17:22.444Z,4.30
2022-11-08T22:19:51.102Z,3.83
2022-11-08T22:22:19.271Z,4.30
2022-11-08T22:24:47.522Z,4.20
2022-11-08T22:27:15.723Z,3.63
2022-11-08T22:29:44.007Z,3.90
2022-11-08T22:32:13.588Z,4.10
2022-11-08T22:34:41.755Z,4.13
2022-11-08T22:37:09.981Z,4.00
2022-11-08T22:39:38.256Z,4.00
2022-11-08T22:42:06.436Z,4.00
2022-11-08T22:44:34.638Z,4.03
2022-11-08T22:47:03.057Z,3.83
2022-11-08T22:49:32.671Z,3.47
2022-11-08T22:52:00.945Z,3.73
2022-11-08T22:54:29.177Z,3.80
2022-11-08T22:56:57.442Z,3.77
2022-11-08T22:59:25.744Z,3.90
2022-11-08T23:02:19.011Z,3.93
2022-11-08T23:04:48.808Z,3.87
2022-11-08T23:07:26.874Z,3.70
2022-11-08T23:09:55.116Z,3.60
2022-11-08T23:12:40.973Z,4.30
2022-11-08T23:15:28.718Z,3.63
2022-11-08T23:17:57.391Z,3.47
2022-11-08T23:20:44.439Z,4.07
2022-11-08T23:23:30.416Z,4.60
2022-11-08T23:25:58.692Z,3.70
2022-11-08T23:28:44.437Z,3.53
2022-11-08T23:31:30.547Z,4.63
2022-11-08T23:33:59.114Z,3.17
2022-11-08T23:36:29.375Z,3.77
2022-11-08T23:38:58.876Z,3.87
2022-11-08T23:41:44.842Z,3.90
2022-11-08T23:44:25.208Z,3.70
2022-11-08T23:46:53.865Z,5.57
2022-11-08T23:49:22.252Z,4.30
2022-11-08T23:51:52.075Z,4.30
2022-11-08T23:54:20.846Z,6.80
2022-11-08T23:56:49.975Z,4.20
2022-11-08T23:59:18.202Z,5.57
